Time;durP1;ratioP1;P1;durP2;ratioP2;P2;SDS_P1;SDS_P2;PMS_P1;PMS_P2;Temp;Humidity;BMP_temperature;BMP_pressure;BME280_temperature;BME280_humidity;BME280_pressure;Samples;Min_cycle;Max_cycle;Signal;HPM_P1;HPM_P2
2023/08/12 00:00:34;;;;;;;;;;;;;;;-144.99;nan;52266.69;5003238;28;19985;-61
2023/08/12 00:03:00;;;;;;;;;;;;;;;-144.99;nan;52268.72;5000569;28;19963;-61
2023/08/12 00:05:27;;;;;;;;;;;;;;;-144.99;nan;52276.88;5001432;28;19948;-61
2023/08/12 00:07:53;;;;;;;;;;;;;;;-144.99;nan;52297.25;5002128;28;19989;-60
2023/08/12 00:10:20;;;;;;;;;;;;;;;-144.99;nan;52303.38;5001830;28;20014;-61
2023/08/12 00:12:46;;;;;;;;;;;;;;;-144.99;nan;52280.97;5002230;28;20091;-61
2023/08/12 00:15:12;;;;;;;;;;;;;;;-144.99;nan;52260.56;5007261;28;20372;-61
2023/08/12 00:17:41;;;;;;;;;;;;;;;-144.99;nan;52280.97;5004640;28;20091;-61
2023/08/12 00:20:10;;;;;;;;;;;;;;;-144.99;nan;52280.97;5004672;28;19953;-60
2023/08/12 00:22:37;;;;;;;;;;;;;;;-144.99;nan;52285.03;5003775;28;20050;-61
2023/08/12 00:25:03;;;;;;;;;;;;;;;-144.99;nan;52280.97;5001351;28;20035;-61
2023/08/12 00:27:30;;;;;;;;;;;;;;;-144.99;nan;52293.19;5001404;28;20063;-61
2023/08/12 00:29:56;;;;;;;;;;;;;;;-144.99;nan;52299.31;5001317;28;19979;-61
2023/08/12 00:32:23;;;;;;;;;;;;;;;-144.99;nan;52262.63;5002384;28;19973;-62
2023/08/12 00:34:51;;;;;;;;;;;;;;;-144.99;nan;52272.81;4661587;28;10000338;-61
2023/08/12 00:37:17;;;;;;;;;;;;;;;-144.99;nan;52297.25;5007455;28;19997;-64
2023/08/12 00:39:44;;;;;;;;;;;;;;;-144.99;nan;52254.47;5005972;28;20497;-72
2023/08/12 00:42:10;;;;;;;;;;;;;;;-144.99;nan;52289.13;5005577;28;20348;-65
2023/08/12 00:44:37;;;;;;;;;;;;;;;-144.99;nan;52270.78;5009544;28;20061;-65
2023/08/12 00:47:03;;;;;;;;;;;;;;;-144.99;nan;52309.50;5008023;28;19946;-65
2023/08/12 00:49:30;;;;;;;;;;;;;;;-144.99;nan;52311.53;5010740;28;20039;-66
2023/08/12 00:51:58;;;;;;;;;;;;;;;-144.99;nan;52333.94;5007140;28;20057;-66
2023/08/12 00:54:27;;;;;;;;;;;;;;;-144.99;nan;52301.34;5002766;28;19949;-65
2023/08/12 00:56:54;;;;;;;;;;;;;;;-144.99;nan;52293.19;5003110;28;20003;-66
2023/08/12 00:59:21;;;;;;;;;;;;;;;-144.99;nan;52333.94;5001887;28;19951;-67
2023/08/12 01:01:48;;;;;;;;;;;;;;;-144.99;nan;52264.66;5002589;28;20067;-65
2023/08/12 01:04:14;;;;;;;;;;;;;;;-144.99;nan;52303.38;5002610;28;20023;-65
2023/08/12 01:06:41;;;;;;;;;;;;;;;-144.99;nan;52276.88;5002688;28;20026;-64
2023/08/12 01:09:09;;;;;;;;;;;;;;;-144.99;nan;52313.56;5002486;28;19952;-66
2023/08/12 01:11:37;;;;;;;;;;;;;;;-144.99;nan;52276.88;5001507;28;19962;-64
2023/08/12 01:14:07;;;;;;;;;;;;;;;-144.99;nan;52280.97;5005164;28;19944;-66
2023/08/12 01:16:37;;;;;;;;;;;;;;;-144.99;nan;52289.13;5001942;28;19981;-66
2023/08/12 01:19:05;;;;;;;;;;;;;;;-144.99;nan;52293.19;5000120;28;20054;-65
2023/08/12 01:21:33;;;;;;;;;;;;;;;-144.99;nan;52342.09;5003777;28;20046;-65
2023/08/12 01:24:01;;;;;;;;;;;;;;;-144.99;nan;52297.25;5005412;28;20015;-65
2023/08/12 01:26:27;;;;;;;;;;;;;;;-144.99;nan;52280.97;5006733;28;20038;-65
2023/08/12 01:28:53;;;;;;;;;;;;;;;-144.99;nan;52313.56;5008396;28;19943;-65
2023/08/12 01:31:24;;;;;;;;;;;;;;;-144.99;nan;52289.13;5005288;28;19984;-65
2023/08/12 01:33:55;;;;;;;;;;;;;;;-144.99;nan;52287.06;5003182;28;19979;-66
2023/08/12 01:36:22;;;;;;;;;;;;;;;-144.99;nan;52305.41;5005984;28;20025;-70
2023/08/12 01:38:50;;;;;;;;;;;;;;;-144.99;nan;52325.81;5008372;28;19963;-70
2023/08/12 01:41:19;;;;;;;;;;;;;;;-144.99;nan;52305.41;5005167;28;20435;-71
2023/08/12 01:43:46;;;;;;;;;;;;;;;-144.99;nan;52289.13;5002512;28;20051;-72
2023/08/12 01:46:12;;;;;;;;;;;;;;;-144.99;nan;52285.03;5002755;28;20023;-71
2023/08/12 01:48:39;;;;;;;;;;;;;;;-144.99;nan;52287.06;5002408;28;20380;-70
2023/08/12 01:51:05;;;;;;;;;;;;;;;-144.99;nan;52303.38;5002154;28;20476;-70
2023/08/12 01:53:32;;;;;;;;;;;;;;;-144.99;nan;52317.66;5003604;28;20002;-70
2023/08/12 01:55:58;;;;;;;;;;;;;;;-144.99;nan;52280.97;5004906;28;19948;-69
2023/08/12 01:58:27;;;;;;;;;;;;;;;-144.99;nan;52293.19;5005788;28;20511;-71
2023/08/12 02:00:53;;;;;;;;;;;;;;;-144.99;nan;52293.19;5001926;28;19952;-70
2023/08/12 02:03:20;;;;;;;;;;;;;;;-144.99;nan;52313.56;5002528;28;19955;-71
2023/08/12 02:05:46;;;;;;;;;;;;;;;-144.99;nan;52291.16;5002461;28;20038;-67
2023/08/12 02:08:13;;;;;;;;;;;;;;;-144.99;nan;52287.06;5001413;28;19946;-67
2023/08/12 02:10:40;;;;;;;;;;;;;;;-144.99;nan;52289.13;5000399;28;20477;-67
2023/08/12 02:13:06;;;;;;;;;;;;;;;-144.99;nan;52293.19;5001741;28;19968;-66
2023/08/12 02:15:34;;;;;;;;;;;;;;;-144.99;nan;52289.13;5008722;28;19977;-66
2023/08/12 02:18:01;;;;;;;;;;;;;;;-144.99;nan;52305.41;5005199;28;20014;-66
2023/08/12 02:20:28;;;;;;;;;;;;;;;-144.99;nan;52305.41;5005039;28;19967;-66
2023/08/12 02:22:54;;;;;;;;;;;;;;;-144.99;nan;52301.34;5004206;28;19969;-66
2023/08/12 02:25:21;;;;;;;;;;;;;;;-144.99;nan;52268.72;5002291;28;19946;-68
2023/08/12 02:27:47;;;;;;;;;;;;;;;-144.99;nan;52293.19;5000450;28;20032;-66
2023/08/12 02:30:13;;;;;;;;;;;;;;;-144.99;nan;52301.34;5000967;28;20040;-66
2023/08/12 02:32:43;;;;;;;;;;;;;;;-144.99;nan;52276.88;5001010;28;20075;-66
2023/08/12 02:35:09;;;;;;;;;;;;;;;-144.99;nan;52313.56;5001612;28;19947;-67
2023/08/12 02:37:36;;;;;;;;;;;;;;;-144.99;nan;52285.03;5007926;28;20040;-67
2023/08/12 02:40:04;;;;;;;;;;;;;;;-144.99;nan;52293.19;5004175;28;19975;-67
2023/08/12 02:42:31;;;;;;;;;;;;;;;-144.99;nan;52333.94;5010107;28;19966;-68
2023/08/12 02:44:57;;;;;;;;;;;;;;;-144.99;nan;52295.22;5002591;28;20411;-67
2023/08/12 02:47:24;;;;;;;;;;;;;;;-144.99;nan;52293.19;5006110;28;19959;-66
2023/08/12 02:49:51;;;;;;;;;;;;;;;-144.99;nan;52301.34;5006590;28;20566;-67
2023/08/12 02:52:18;;;;;;;;;;;;;;;-144.99;nan;52268.72;5004849;28;20074;-67
2023/08/12 02:54:44;;;;;;;;;;;;;;;-144.99;nan;52297.25;5004545;28;20420;-68
2023/08/12 02:57:11;;;;;;;;;;;;;;;-144.99;nan;52297.25;5002899;28;20043;-68
2023/08/12 02:59:37;;;;;;;;;;;;;;;-144.99;nan;52305.41;5000506;28;20020;-68
2023/08/12 03:02:03;;;;;;;;;;;;;;;-144.99;nan;52285.03;5001092;28;19961;-68
2023/08/12 03:04:30;;;;;;;;;;;;;;;-144.99;nan;52313.56;5003837;28;20042;-68
2023/08/12 03:06:58;;;;;;;;;;;;;;;-144.99;nan;52287.06;5005209;28;19941;-66
2023/08/12 03:09:24;;;;;;;;;;;;;;;-144.99;nan;52297.25;5005820;28;21421;-68
2023/08/12 03:11:51;;;;;;;;;;;;;;;-144.99;nan;52301.34;5005777;28;20596;-70
2023/08/12 03:14:17;;;;;;;;;;;;;;;-144.99;nan;52313.56;5009620;28;20037;-70
2023/08/12 03:16:44;;;;;;;;;;;;;;;-144.99;nan;52333.94;5006069;28;20043;-69
2023/08/12 03:19:10;;;;;;;;;;;;;;;-144.99;nan;52299.31;5007552;28;20441;-69
2023/08/12 03:21:37;;;;;;;;;;;;;;;-144.99;nan;52295.22;5008082;28;20058;-69
2023/08/12 03:24:05;;;;;;;;;;;;;;;-144.99;nan;52321.72;5004337;28;20054;-69
2023/08/12 03:26:31;;;;;;;;;;;;;;;-144.99;nan;52264.66;5004680;28;19948;-69
2023/08/12 03:28:58;;;;;;;;;;;;;;;-144.99;nan;52336.00;5005204;28;20035;-69
2023/08/12 03:31:24;;;;;;;;;;;;;;;-144.99;nan;52309.50;5004838;28;20063;-70
2023/08/12 03:33:51;;;;;;;;;;;;;;;-144.99;nan;52297.25;5005039;28;19976;-70
2023/08/12 03:36:17;;;;;;;;;;;;;;;-144.99;nan;52321.72;5004759;28;19951;-71
2023/08/12 03:38:44;;;;;;;;;;;;;;;-144.99;nan;52331.91;5004697;28;19976;-69
2023/08/12 03:41:11;;;;;;;;;;;;;;;-144.99;nan;52276.88;5005221;28;20606;-69
2023/08/12 03:43:38;;;;;;;;;;;;;;;-144.99;nan;52315.59;5006157;28;20506;-70
2023/08/12 03:46:05;;;;;;;;;;;;;;;-144.99;nan;52309.50;5008786;28;20459;-70
2023/08/12 03:48:31;;;;;;;;;;;;;;;-144.99;nan;52293.19;5004681;28;20001;-66
2023/08/12 03:50:58;;;;;;;;;;;;;;;-144.99;nan;52358.41;5004102;28;20321;-65
2023/08/12 03:53:24;;;;;;;;;;;;;;;-144.99;nan;52268.72;5004377;28;19977;-66
2023/08/12 03:55:51;;;;;;;;;;;;;;;-144.99;nan;52276.88;5005401;28;19944;-66
2023/08/12 03:58:18;;;;;;;;;;;;;;;-144.99;nan;52309.50;5003638;28;20085;-66
2023/08/12 04:00:45;;;;;;;;;;;;;;;-144.99;nan;52309.50;5004501;28;20040;-65
2023/08/12 04:03:11;;;;;;;;;;;;;;;-144.99;nan;52272.81;5003588;28;20451;-66
2023/08/12 04:05:38;;;;;;;;;;;;;;;-144.99;nan;52309.50;5003266;28;19976;-66
2023/08/12 04:08:05;;;;;;;;;;;;;;;-144.99;nan;52305.41;5002971;28;20024;-66
2023/08/12 04:10:31;;;;;;;;;;;;;;;-144.99;nan;52311.53;5003775;28;19943;-65
2023/08/12 04:12:57;;;;;;;;;;;;;;;-144.99;nan;52321.72;5004001;28;20204;-65
2023/08/12 04:15:25;;;;;;;;;;;;;;;-144.99;nan;52285.03;5006649;28;19980;-64
2023/08/12 04:17:52;;;;;;;;;;;;;;;-144.99;nan;52264.66;5003589;28;19952;-64
2023/08/12 04:20:18;;;;;;;;;;;;;;;-144.99;nan;52317.66;5003387;28;19983;-68
2023/08/12 04:22:45;;;;;;;;;;;;;;;-144.99;nan;52305.41;5004415;28;19966;-71
2023/08/12 04:25:11;;;;;;;;;;;;;;;-144.99;nan;52321.72;5003802;28;19993;-70
2023/08/12 04:27:37;;;;;;;;;;;;;;;-144.99;nan;52327.84;5003994;28;20041;-69
2023/08/12 04:30:04;;;;;;;;;;;;;;;-144.99;nan;52297.25;5003431;28;20060;-69
2023/08/12 04:32:32;;;;;;;;;;;;;;;-144.99;nan;52295.22;5003250;28;19961;-68
2023/08/12 04:34:59;;;;;;;;;;;;;;;-144.99;nan;52305.41;5005200;28;19942;-68
2023/08/12 04:37:26;;;;;;;;;;;;;;;-144.99;nan;52321.72;5007104;28;20480;-70
2023/08/12 04:39:52;;;;;;;;;;;;;;;-144.99;nan;52307.47;5009735;28;19955;-70
2023/08/12 04:42:19;;;;;;;;;;;;;;;-144.99;nan;52276.88;5010803;28;19963;-70
2023/08/12 04:44:45;;;;;;;;;;;;;;;-144.99;nan;52303.38;5010028;28;20374;-68
2023/08/12 04:47:13;;;;;;;;;;;;;;;-144.99;nan;52315.59;5006270;28;19957;-69
2023/08/12 04:49:41;;;;;;;;;;;;;;;-144.99;nan;52325.81;5011378;28;19936;-67
2023/08/12 04:52:08;;;;;;;;;;;;;;;-144.99;nan;52256.50;5010898;28;20003;-66
2023/08/12 04:54:34;;;;;;;;;;;;;;;-144.99;nan;52321.72;5008776;28;20337;-68
2023/08/12 04:57:01;;;;;;;;;;;;;;;-144.99;nan;52260.56;5005546;28;19969;-67
2023/08/12 04:59:27;;;;;;;;;;;;;;;-144.99;nan;52313.56;5002930;28;20571;-69
2023/08/12 05:01:54;;;;;;;;;;;;;;;-144.99;nan;52276.88;5003021;28;20436;-67
2023/08/12 05:04:20;;;;;;;;;;;;;;;-144.99;nan;52299.31;5003507;28;20499;-66
2023/08/12 05:06:48;;;;;;;;;;;;;;;-144.99;nan;52309.50;5003369;28;20394;-66
2023/08/12 05:09:14;;;;;;;;;;;;;;;-144.99;nan;52317.66;5002221;28;19950;-69
2023/08/12 05:11:41;;;;;;;;;;;;;;;-144.99;nan;52301.34;5002876;28;20004;-67
2023/08/12 05:14:08;;;;;;;;;;;;;;;-144.99;nan;52350.25;5005979;28;19981;-66
2023/08/12 05:16:34;;;;;;;;;;;;;;;-144.99;nan;52307.47;5002863;28;19957;-66
2023/08/12 05:19:01;;;;;;;;;;;;;;;-144.99;nan;52333.94;5003431;28;20454;-66
2023/08/12 05:21:27;;;;;;;;;;;;;;;-144.99;nan;52305.41;5003585;28;20043;-66
2023/08/12 05:23:55;;;;;;;;;;;;;;;-144.99;nan;52280.97;5002574;28;19947;-68
2023/08/12 05:26:22;;;;;;;;;;;;;;;-144.99;nan;52329.88;5002015;28;19947;-68
2023/08/12 05:28:48;;;;;;;;;;;;;;;-144.99;nan;52266.69;5002797;28;20513;-67
2023/08/12 05:31:15;;;;;;;;;;;;;;;-144.99;nan;52301.34;5001544;28;20104;-68
2023/08/12 05:33:41;;;;;;;;;;;;;;;-144.99;nan;52338.03;5017435;28;19942;-68
2023/08/12 05:36:08;;;;;;;;;;;;;;;-144.99;nan;52313.56;5002714;28;19946;-65
2023/08/12 05:38:35;;;;;;;;;;;;;;;-144.99;nan;52317.66;5002123;28;20076;-66
2023/08/12 05:41:06;;;;;;;;;;;;;;;-144.99;nan;52342.09;5002206;28;20542;-66
2023/08/12 05:43:33;;;;;;;;;;;;;;;-144.99;nan;52297.25;5002016;28;20401;-65
2023/08/12 05:45:59;;;;;;;;;;;;;;;-144.99;nan;52297.25;5002580;28;19950;-65
2023/08/12 05:48:26;;;;;;;;;;;;;;;-144.99;nan;52305.41;5001489;28;20045;-66
2023/08/12 05:50:52;;;;;;;;;;;;;;;-144.99;nan;52342.09;5001963;28;19945;-66
2023/08/12 05:53:19;;;;;;;;;;;;;;;-144.99;nan;52342.09;5002325;28;20046;-65
2023/08/12 05:55:45;;;;;;;;;;;;;;;-144.99;nan;52325.81;5002638;28;19939;-66
2023/08/12 05:58:13;;;;;;;;;;;;;;;-144.99;nan;52329.88;5003026;28;19949;-66
2023/08/12 06:00:39;;;;;;;;;;;;;;;-144.99;nan;52325.81;5003033;28;19971;-67
2023/08/12 06:03:06;;;;;;;;;;;;;;;-144.99;nan;52305.41;5001908;28;20005;-65
2023/08/12 06:05:32;;;;;;;;;;;;;;;-144.99;nan;52293.19;4999738;28;20041;-67
2023/08/12 06:07:59;;;;;;;;;;;;;;;-144.99;nan;52305.41;5000747;28;20004;-71
2023/08/12 06:10:25;;;;;;;;;;;;;;;-144.99;nan;52329.88;4998692;28;19951;-69
2023/08/12 06:12:52;;;;;;;;;;;;;;;-144.99;nan;52325.81;4999868;28;19965;-70
2023/08/12 06:15:20;;;;;;;;;;;;;;;-144.99;nan;52289.13;4999167;28;19989;-71
2023/08/12 06:17:46;;;;;;;;;;;;;;;-144.99;nan;52319.69;5000126;28;19942;-69
2023/08/12 06:20:13;;;;;;;;;;;;;;;-144.99;nan;52307.47;4999257;28;19987;-64
2023/08/12 06:22:39;;;;;;;;;;;;;;;-144.99;nan;52313.56;4998460;28;19972;-65
2023/08/12 06:25:06;;;;;;;;;;;;;;;-144.99;nan;52301.34;4999081;28;20121;-61
2023/08/12 06:27:33;;;;;;;;;;;;;;;-144.99;nan;52342.09;4999368;28;19954;-63
2023/08/12 06:29:59;;;;;;;;;;;;;;;-144.99;nan;52280.97;4999917;28;20015;-64
2023/08/12 06:32:27;;;;;;;;;;;;;;;-144.99;nan;52289.13;5004475;28;19961;-63
2023/08/12 06:34:53;;;;;;;;;;;;;;;-144.99;nan;52301.34;5003266;28;20048;-66
2023/08/12 06:37:20;;;;;;;;;;;;;;;-144.99;nan;52276.88;5011361;28;19943;-65
2023/08/12 06:39:46;;;;;;;;;;;;;;;-144.99;nan;52268.72;5007720;28;19971;-65
2023/08/12 06:42:13;;;;;;;;;;;;;;;-144.99;nan;52301.34;5009153;28;19970;-65
2023/08/12 06:44:39;;;;;;;;;;;;;;;-144.99;nan;52313.56;5004863;28;20082;-65
2023/08/12 06:47:06;;;;;;;;;;;;;;;-144.99;nan;52289.13;5005586;28;20033;-67
2023/08/12 06:49:33;;;;;;;;;;;;;;;-144.99;nan;52315.59;5007094;28;19976;-68
2023/08/12 06:52:00;;;;;;;;;;;;;;;-144.99;nan;52311.53;5002056;28;19976;-67
2023/08/12 06:54:26;;;;;;;;;;;;;;;-144.99;nan;52307.47;5001689;28;20011;-68
2023/08/12 06:56:53;;;;;;;;;;;;;;;-144.99;nan;52305.41;4999997;28;20036;-65
2023/08/12 06:59:19;;;;;;;;;;;;;;;-144.99;nan;52280.97;4997964;28;20353;-66
2023/08/12 07:01:46;;;;;;;;;;;;;;;-144.99;nan;52291.16;4999186;28;20062;-66
2023/08/12 07:04:12;;;;;;;;;;;;;;;-144.99;nan;52280.97;4998198;28;20938;-68
2023/08/12 07:06:40;;;;;;;;;;;;;;;-144.99;nan;52278.91;4998811;28;20051;-69
2023/08/12 07:09:07;;;;;;;;;;;;;;;-144.99;nan;52244.28;4996155;28;20053;-69
2023/08/12 07:11:33;;;;;;;;;;;;;;;-144.99;nan;52264.66;5000286;28;19958;-68
2023/08/12 07:13:59;;;;;;;;;;;;;;;-144.99;nan;52280.97;4998864;28;19996;-69
2023/08/12 07:16:26;;;;;;;;;;;;;;;-144.99;nan;52276.88;5000085;28;19941;-69
2023/08/12 07:18:52;;;;;;;;;;;;;;;-144.99;nan;52252.44;4998890;28;19985;-70
2023/08/12 07:21:19;;;;;;;;;;;;;;;-144.99;nan;52313.56;4999369;28;20065;-69
2023/08/12 07:23:47;;;;;;;;;;;;;;;-144.99;nan;52260.56;4997624;28;20049;-69
2023/08/12 07:26:13;;;;;;;;;;;;;;;-144.99;nan;52240.19;4998493;28;19946;-69
2023/08/12 07:28:40;;;;;;;;;;;;;;;-144.99;nan;52278.91;4998813;28;20045;-69
2023/08/12 07:31:06;;;;;;;;;;;;;;;-144.99;nan;52248.34;5001155;28;19951;-69
2023/08/12 07:33:32;;;;;;;;;;;;;;;-144.99;nan;52213.69;5000862;28;19951;-70
2023/08/12 07:35:59;;;;;;;;;;;;;;;-144.99;nan;52280.97;5005028;28;19951;-69
2023/08/12 07:38:25;;;;;;;;;;;;;;;-144.99;nan;52240.19;5002516;28;19987;-68
2023/08/12 07:40:53;;;;;;;;;;;;;;;-144.99;nan;52219.81;5002506;28;20000;-69
2023/08/12 07:43:20;;;;;;;;;;;;;;;-144.99;nan;52213.69;4999359;28;19967;-68
2023/08/12 07:45:46;;;;;;;;;;;;;;;-144.99;nan;52240.19;5003238;28;20083;-70
2023/08/12 07:48:12;;;;;;;;;;;;;;;-144.99;nan;52232.03;5007754;28;20462;-69
2023/08/12 07:50:39;;;;;;;;;;;;;;;-144.99;nan;52236.13;5008483;28;19943;-70
2023/08/12 07:53:05;;;;;;;;;;;;;;;-144.99;nan;52183.13;5008133;28;20047;-67
2023/08/12 07:55:32;;;;;;;;;;;;;;;-144.99;nan;52189.25;5006445;28;20414;-67
2023/08/12 07:57:59;;;;;;;;;;;;;;;-144.99;nan;52223.88;5004531;28;19949;-68
2023/08/12 08:00:26;;;;;;;;;;;;;;;-144.99;nan;52199.44;5005214;28;20051;-68
2023/08/12 08:02:52;;;;;;;;;;;;;;;-144.99;nan;52234.09;5004376;28;19965;-67
2023/08/12 08:05:19;;;;;;;;;;;;;;;-144.99;nan;52223.88;5004313;28;20415;-65
2023/08/12 08:07:45;;;;;;;;;;;;;;;-144.99;nan;52215.75;5005132;28;20058;-67
2023/08/12 08:10:12;;;;;;;;;;;;;;;-144.99;nan;52285.03;5004981;28;20430;-69
2023/08/12 08:12:38;;;;;;;;;;;;;;;-144.99;nan;52238.16;5004305;28;20672;-68
2023/08/12 08:15:07;;;;;;;;;;;;;;;-144.99;nan;52248.34;5004491;28;19942;-67
2023/08/12 08:17:33;;;;;;;;;;;;;;;-144.99;nan;52250.38;5004266;28;20043;-69
2023/08/12 08:19:59;;;;;;;;;;;;;;;-144.99;nan;52221.84;5003423;28;20049;-69
2023/08/12 08:22:26;;;;;;;;;;;;;;;-144.99;nan;52260.56;5004172;28;20053;-69
2023/08/12 08:24:52;;;;;;;;;;;;;;;-144.99;nan;52248.34;5006297;28;19999;-73
2023/08/12 08:27:19;;;;;;;;;;;;;;;-144.99;nan;52276.88;5012435;28;19984;-73
2023/08/12 08:29:46;;;;;;;;;;;;;;;-144.99;nan;52268.72;5008455;28;19946;-72
2023/08/12 08:32:13;;;;;;;;;;;;;;;-144.99;nan;52248.34;5010260;28;20203;-72
2023/08/12 08:34:40;;;;;;;;;;;;;;;-144.99;nan;52227.97;5004462;28;20393;-72
2023/08/12 08:37:06;;;;;;;;;;;;;;;-144.99;nan;52252.44;5006330;28;20501;-72
2023/08/12 08:39:33;;;;;;;;;;;;;;;-144.99;nan;52260.56;5009164;28;19945;-70
2023/08/12 08:41:59;;;;;;;;;;;;;;;-144.99;nan;52234.09;5011701;28;20085;-70
2023/08/12 08:44:28;;;;;;;;;;;;;;;-144.99;nan;52254.47;5014252;28;19985;-72
2023/08/12 08:46:55;;;;;;;;;;;;;;;-144.99;nan;52280.97;5008051;28;20026;-71
2023/08/12 08:49:23;;;;;;;;;;;;;;;-144.99;nan;52244.28;5004054;28;19954;-69
2023/08/12 08:51:51;;;;;;;;;;;;;;;-144.99;nan;52219.81;5007334;28;19964;-71
2023/08/12 08:54:17;;;;;;;;;;;;;;;-144.99;nan;52191.28;5004907;28;20004;-71
2023/08/12 08:56:43;;;;;;;;;;;;;;;-144.99;nan;52223.88;5008319;28;20426;-71
2023/08/12 08:59:10;;;;;;;;;;;;;;;-144.99;nan;52219.81;5008680;28;19974;-70
2023/08/12 09:01:37;;;;;;;;;;;;;;;-144.99;nan;52225.94;5008790;28;19962;-71
2023/08/12 09:04:04;;;;;;;;;;;;;;;-144.99;nan;52230.00;5010603;28;19946;-71
2023/08/12 09:06:33;;;;;;;;;;;;;;;-144.99;nan;52240.19;5008666;28;19948;-72
2023/08/12 09:09:01;;;;;;;;;;;;;;;-144.99;nan;52209.63;5006318;28;20216;-70
2023/08/12 09:11:27;;;;;;;;;;;;;;;-144.99;nan;52232.03;5003040;28;19997;-71
2023/08/12 09:13:54;;;;;;;;;;;;;;;-144.99;nan;52232.03;5003201;28;19978;-70
2023/08/12 09:16:21;;;;;;;;;;;;;;;-144.99;nan;52252.44;5003595;28;19985;-72
2023/08/12 09:18:47;;;;;;;;;;;;;;;-144.99;nan;52264.66;5003546;28;19944;-71
2023/08/12 09:21:13;;;;;;;;;;;;;;;-144.99;nan;52227.97;5003721;28;19964;-70
2023/08/12 09:23:42;;;;;;;;;;;;;;;-144.99;nan;52221.84;5003203;28;19958;-71
2023/08/12 09:26:14;;;;;;;;;;;;;;;-144.99;nan;52252.44;5004034;28;20589;-71
2023/08/12 09:28:41;;;;;;;;;;;;;;;-144.99;nan;52260.56;5001192;28;19958;-70
2023/08/12 09:31:08;;;;;;;;;;;;;;;-144.99;nan;52240.19;5003164;28;19942;-70
2023/08/12 09:33:39;;;;;;;;;;;;;;;-144.99;nan;52240.19;5000365;28;19950;-71
2023/08/12 09:36:05;;;;;;;;;;;;;;;-144.99;nan;52287.06;5004700;28;20033;-71
2023/08/12 09:38:32;;;;;;;;;;;;;;;-144.99;nan;52276.88;5006353;28;20565;-70
2023/08/12 09:41:00;;;;;;;;;;;;;;;-144.99;nan;52252.44;5007222;28;19959;-70
2023/08/12 09:43:28;;;;;;;;;;;;;;;-144.99;nan;52256.50;5005283;28;20035;-70
2023/08/12 09:45:56;;;;;;;;;;;;;;;-144.99;nan;52289.13;5011400;28;20452;-70
2023/08/12 09:48:23;;;;;;;;;;;;;;;-144.99;nan;52252.44;5005809;28;20474;-71
2023/08/12 09:50:50;;;;;;;;;;;;;;;-144.99;nan;52325.81;5009819;28;19965;-71
2023/08/12 09:53:17;;;;;;;;;;;;;;;-144.99;nan;52262.63;5005743;28;19961;-71
2023/08/12 09:55:44;;;;;;;;;;;;;;;-144.99;nan;52260.56;5006483;28;19999;-71
2023/08/12 09:58:12;;;;;;;;;;;;;;;-144.99;nan;52293.19;5000121;28;19956;-70
2023/08/12 10:00:41;;;;;;;;;;;;;;;-144.99;nan;52272.81;5001567;28;19959;-69
2023/08/12 10:03:08;;;;;;;;;;;;;;;-144.99;nan;52293.19;5004047;28;20036;-70
2023/08/12 10:05:35;;;;;;;;;;;;;;;-144.99;nan;52280.97;5001557;28;19944;-70
2023/08/12 10:08:03;;;;;;;;;;;;;;;-144.99;nan;52305.41;5002384;28;20028;-70
2023/08/12 10:10:31;;;;;;;;;;;;;;;-144.99;nan;52264.66;5008576;28;20470;-70
2023/08/12 10:12:58;;;;;;;;;;;;;;;-144.99;nan;52309.50;5001972;28;19967;-70
2023/08/12 10:15:26;;;;;;;;;;;;;;;-144.99;nan;52280.97;5004749;28;20384;-71
2023/08/12 10:17:53;;;;;;;;;;;;;;;-144.99;nan;52301.34;5005095;28;20320;-70
2023/08/12 10:20:21;;;;;;;;;;;;;;;-144.99;nan;52309.50;5003006;28;19966;-70
2023/08/12 10:22:48;;;;;;;;;;;;;;;-144.99;nan;52293.19;5000670;28;20386;-71
2023/08/12 10:25:15;;;;;;;;;;;;;;;-144.99;nan;52266.69;5008391;28;19966;-71
2023/08/12 10:27:42;;;;;;;;;;;;;;;-144.99;nan;52272.81;5003569;28;20892;-72
2023/08/12 10:30:09;;;;;;;;;;;;;;;-144.99;nan;52313.56;4999817;28;20028;-70
2023/08/12 10:32:37;;;;;;;;;;;;;;;-144.99;nan;52289.13;5000506;28;20344;-71
2023/08/12 10:35:03;;;;;;;;;;;;;;;-144.99;nan;52354.34;5005740;28;20165;-71
2023/08/12 10:37:33;;;;;;;;;;;;;;;-144.99;nan;52297.25;5007257;28;19944;-72
2023/08/12 10:39:59;;;;;;;;;;;;;;;-144.99;nan;52313.56;5008005;28;19987;-72
2023/08/12 10:42:42;;;;;;;;;;;;;;;-144.99;nan;52305.41;5007738;28;20035;-71
2023/08/12 10:45:09;;;;;;;;;;;;;;;-144.99;nan;52303.38;5006012;28;19939;-71
2023/08/12 10:47:40;;;;;;;;;;;;;;;-144.99;nan;52301.34;5004963;28;20442;-70
2023/08/12 10:50:07;;;;;;;;;;;;;;;-144.99;nan;52317.66;5001877;28;20036;-69
2023/08/12 10:52:35;;;;;;;;;;;;;;;-144.99;nan;52350.25;5006933;28;20047;-69
2023/08/12 10:55:17;;;;;;;;;;;;;;;-144.99;nan;52276.88;5008450;28;19994;-69
2023/08/12 10:57:44;;;;;;;;;;;;;;;-144.99;nan;52317.66;5007337;28;20113;-70
2023/08/12 11:00:13;;;;;;;;;;;;;;;-144.99;nan;52293.19;5007591;28;20083;-71
2023/08/12 11:02:44;;;;;;;;;;;;;;;-144.99;nan;52313.56;5005495;28;19968;-70
2023/08/12 11:05:12;;;;;;;;;;;;;;;-144.99;nan;52297.25;5008069;28;20446;-70
2023/08/12 11:07:39;;;;;;;;;;;;;;;-144.99;nan;52305.41;5012220;28;19990;-70
2023/08/12 11:10:10;;;;;;;;;;;;;;;-144.99;nan;52309.50;5011418;28;20047;-71
2023/08/12 11:12:37;;;;;;;;;;;;;;;-144.99;nan;52293.19;5006190;28;19960;-71
2023/08/12 11:15:07;;;;;;;;;;;;;;;-144.99;nan;52305.41;5009267;28;20003;-71
2023/08/12 11:17:34;;;;;;;;;;;;;;;-144.99;nan;52293.19;5002927;28;20085;-70
2023/08/12 11:20:04;;;;;;;;;;;;;;;-144.99;nan;52276.88;5005951;28;19944;-71
2023/08/12 11:22:31;;;;;;;;;;;;;;;-144.99;nan;52307.47;5005161;28;19965;-71
2023/08/12 11:24:57;;;;;;;;;;;;;;;-144.99;nan;52297.25;5005819;28;20035;-71
2023/08/12 11:27:24;;;;;;;;;;;;;;;-144.99;nan;52295.22;5010631;28;20039;-70
2023/08/12 11:29:51;;;;;;;;;;;;;;;-144.99;nan;52309.50;5001070;28;20303;-71
2023/08/12 11:32:17;;;;;;;;;;;;;;;-144.99;nan;52329.88;5007750;28;19963;-71
2023/08/12 11:34:44;;;;;;;;;;;;;;;-144.99;nan;52289.13;5008365;28;19988;-70
2023/08/12 11:37:12;;;;;;;;;;;;;;;-144.99;nan;52313.56;5004226;28;20034;-71
2023/08/12 11:39:39;;;;;;;;;;;;;;;-144.99;nan;52327.84;4999606;28;19940;-70
2023/08/12 11:42:05;;;;;;;;;;;;;;;-144.99;nan;52301.34;5006183;28;20060;-70
2023/08/12 11:44:32;;;;;;;;;;;;;;;-144.99;nan;52325.81;5004779;28;20028;-70
2023/08/12 11:46:58;;;;;;;;;;;;;;;-144.99;nan;52297.25;5004960;28;20258;-70
2023/08/12 11:49:25;;;;;;;;;;;;;;;-144.99;nan;52329.88;5004639;28;20068;-72
2023/08/12 11:51:51;;;;;;;;;;;;;;;-144.99;nan;52321.72;5005929;28;19963;-70
2023/08/12 11:54:20;;;;;;;;;;;;;;;-144.99;nan;52295.22;5005327;28;20035;-73
2023/08/12 11:56:46;;;;;;;;;;;;;;;-144.99;nan;52309.50;5011521;28;19950;-71
2023/08/12 11:59:13;;;;;;;;;;;;;;;-144.99;nan;52321.72;5017017;28;20449;-71
2023/08/12 12:01:39;;;;;;;;;;;;;;;-144.99;nan;52285.03;5009499;28;19960;-72
2023/08/12 12:04:06;;;;;;;;;;;;;;;-144.99;nan;52297.25;5005438;28;19949;-70
2023/08/12 12:06:32;;;;;;;;;;;;;;;-144.99;nan;52315.59;5005594;28;19945;-69
2023/08/12 12:09:02;;;;;;;;;;;;;;;-144.99;nan;52342.09;5003354;28;19946;-70
2023/08/12 12:11:30;;;;;;;;;;;;;;;-144.99;nan;52342.09;5003982;28;20000;-71
2023/08/12 12:13:56;;;;;;;;;;;;;;;-144.99;nan;52329.88;5003773;28;22266;-69
2023/08/12 12:16:23;;;;;;;;;;;;;;;-144.99;nan;52276.88;5010935;28;19948;-72
2023/08/12 12:18:49;;;;;;;;;;;;;;;-144.99;nan;52309.50;5006075;28;19946;-69
2023/08/12 12:21:21;;;;;;;;;;;;;;;-144.99;nan;52276.88;5002284;28;20048;-69
2023/08/12 12:23:47;;;;;;;;;;;;;;;-144.99;nan;52305.41;5009087;28;19938;-70
2023/08/12 12:26:14;;;;;;;;;;;;;;;-144.99;nan;52289.13;5003685;28;19997;-70
2023/08/12 12:28:41;;;;;;;;;;;;;;;-144.99;nan;52268.72;5007665;28;19980;-70
2023/08/12 12:31:09;;;;;;;;;;;;;;;-144.99;nan;52301.34;5012114;28;20361;-70
2023/08/12 12:33:35;;;;;;;;;;;;;;;-144.99;nan;52295.22;5007840;28;20252;-69
2023/08/12 12:36:02;;;;;;;;;;;;;;;-144.99;nan;52272.81;5010296;28;20037;-70
2023/08/12 12:38:28;;;;;;;;;;;;;;;-144.99;nan;52285.03;5007571;28;19943;-70
2023/08/12 12:40:55;;;;;;;;;;;;;;;-144.99;nan;52244.28;5011235;28;19947;-69
2023/08/12 12:43:21;;;;;;;;;;;;;;;-144.99;nan;52240.19;5004810;28;20047;-70